Hub


Voltar

 INFORMAÇÕES METEOROLÓGICAS

METAR FOR PASD


ADDS - METARS form results

(2017 UTC 17 January 2019)
Data provider http://aviationweather.gov/metar/data/
 
METAR text: PASD 172014Z 31013KT 10SM FEW015 SCT023 BKN029 02/01 A2961 RMK AO2 SNE06 PNO $
Conditions at: PASD (SAND POINT , AK, US) observed 2014 UTC 17 January 2019
Temperature: 2.0°C (36°F)
Dewpoint: 1.0°C (34°F) [RH = 93%]
Pressure (altimeter): 29.61 inches Hg (1002.8 mb)
Winds: from the NW (310 degrees) at 15 MPH (13 knots; 6.7 m/s)
Visibility: 10 or more miles (16+ km)
Ceiling: 2900 feet AGL
Clouds: few clouds at 1500 feet AGL
scattered clouds at 2300 feet AGL
broken clouds at 2900 feet AGL
Weather:
SOME DATA ABOVE MAY BE INACCURATE!!!
"$" is an indication the sensor requires maintenance

METAR text: PASD 171956Z 32012KT 10SM -SN FEW012 SCT018 BKN023 02/01 A2961 RMK AO2 RAE14 SLP028 T00170006 PNO $
Conditions at: PASD (SAND POINT , AK, US) observed 1956 UTC 17 January 2019
Temperature: 1.7°C (35°F)
Dewpoint: 0.6°C (33°F) [RH = 92%]
Pressure (altimeter): 29.61 inches Hg (1002.8 mb)
[Sea-level pressure: 1002.8 mb]
Winds: from the NW (320 degrees) at 14 MPH (12 knots; 6.2 m/s)
Visibility: 10 or more miles (16+ km)
Ceiling: 2300 feet AGL
Clouds: few clouds at 1200 feet AGL
scattered clouds at 1800 feet AGL
broken clouds at 2300 feet AGL
Weather: -SN  (light snow)
SOME DATA ABOVE MAY BE INACCURATE!!!
"$" is an indication the sensor requires maintenance

METAR text: PASD 171954Z 32012KT 8SM -SN FEW012 BKN018 OVC023 02/01 A2961 RMK AO2 RAE14 PNO $
Conditions at: PASD (SAND POINT , AK, US) observed 1954 UTC 17 January 2019
Temperature: 2.0°C (36°F)
Dewpoint: 1.0°C (34°F) [RH = 93%]
Pressure (altimeter): 29.61 inches Hg (1002.8 mb)
Winds: from the NW (320 degrees) at 14 MPH (12 knots; 6.2 m/s)
Visibility: 8 miles (13 km)
Ceiling: 1800 feet AGL
Clouds: few clouds at 1200 feet AGL
broken clouds at 1800 feet AGL
overcast cloud deck at 2300 feet AGL
Weather: -SN  (light snow)
SOME DATA ABOVE MAY BE INACCURATE!!!
"$" is an indication the sensor requires maintenance

METAR text: PASD 171937Z 32012KT 7SM -SN FEW009 BKN014 OVC018 01/00 A2960 RMK AO2 RAE14 PNO $
Conditions at: PASD (SAND POINT , AK, US) observed 1937 UTC 17 January 2019
Temperature: 1.0°C (34°F)
Dewpoint: 0.0°C (32°F) [RH = 93%]
Pressure (altimeter): 29.60 inches Hg (1002.5 mb)
Winds: from the NW (320 degrees) at 14 MPH (12 knots; 6.2 m/s)
Visibility: 7 miles (11 km)
Ceiling: 1400 feet AGL
Clouds: few clouds at 900 feet AGL
broken clouds at 1400 feet AGL
overcast cloud deck at 1800 feet AGL
Weather: -SN  (light snow)
SOME DATA ABOVE MAY BE INACCURATE!!!
"$" is an indication the sensor requires maintenance

METAR text: PASD 171919Z 34012KT 5SM -SN BR FEW005 BKN013 OVC018 01/00 A2960 RMK AO2 RAE14 PNO $
Conditions at: PASD (SAND POINT , AK, US) observed 1919 UTC 17 January 2019
Temperature: 1.0°C (34°F)
Dewpoint: 0.0°C (32°F) [RH = 93%]
Pressure (altimeter): 29.60 inches Hg (1002.5 mb)
Winds: from the NNW (340 degrees) at 14 MPH (12 knots; 6.2 m/s)
Visibility: 5 miles ( 8 km)
Ceiling: 1300 feet AGL
Clouds: few clouds at 500 feet AGL
broken clouds at 1300 feet AGL
overcast cloud deck at 1800 feet AGL
Weather: -SN BR  (light snow, mist)
SOME DATA ABOVE MAY BE INACCURATE!!!
"$" is an indication the sensor requires maintenance

Forecast for: PASD (SAND POINT , AK, US)
Text: PASD 171738Z 1718/1818 34011KT P6SM -SHRA OVC015
Forecast period: 1800 to 2000 UTC 17 January 2019
Forecast type: FROM: standard forecast or significant change
Winds: from the NNW (340 degrees) at 13 MPH (11 knots; 5.7 m/s)
Visibility: 6 or more miles 10+ km)
Ceiling: 1500 feet AGL
Clouds: overcast cloud deck at 1500 feet AGL
Weather: -SHRA  (light rain showers)
Text: TEMPO 1718/1720 5SM -SHRASN BKN008
Forecast period: 1800 to 2000 UTC 17 January 2019
Forecast type: TEMPORARY: The following changes expected for less than half the time period
Visibility: 5 miles (8 km)
Ceiling: 800 feet AGL
Clouds: broken clouds at 800 feet AGL
Weather: -SHRA -SHSN  (light rain showers, light snow showers)
Text: FM172000 36006KT P6SM BKN030
Forecast period: 2000 UTC 17 January 2019 to 0300 UTC 18 January 2019
Forecast type: FROM: standard forecast or significant change
Winds: from the N (360 degrees) at 7 MPH (6 knots; 3.1 m/s)
Visibility: 6 or more miles 10+ km)
Ceiling: 3000 feet AGL
Clouds: broken clouds at 3000 feet AGL
Weather: no significant weather forecast for this period
Text: TEMPO 1720/1724 -SHRA BKN015
Forecast period: 2000 UTC 17 January 2019 to 0000 UTC 18 January 2019
Forecast type: TEMPORARY: The following changes expected for less than half the time period
Visibility: missing
Ceiling: 1500 feet AGL
Clouds: broken clouds at 1500 feet AGL
Weather: -SHRA  (light rain showers)
Text: FM180300 34010G18KT 4SM -RA BR OVC015 AMD LTD TO CLD VIS AND WIND
Forecast period: 0300 to 1800 UTC 18 January 2019
Forecast type: FROM: standard forecast or significant change
Winds: from the NNW (340 degrees) at 12 MPH (10 knots; 5.1 m/s)
gusting to 21 MPH (18 knots; 9.3 m/s)
Visibility: 4 miles (6 km)
Ceiling: 1500 feet AGL
Clouds: overcast cloud deck at 1500 feet AGL
Weather: -RA BR  (light rain, mist)


 MAPA DO AEROPORTO


 INFORMAÇÕES DA PISTA

Pista 13 Tamanho da pista 4000 ft Largura da pista 150 ft
Elevação da pista 21 ft Ranhura da pista 0 ft Proa da pista 149
Pista 31 Tamanho da pista 4000 ft Largura da pista 150 ft
Elevação da pista 21 ft Ranhura da pista 0 ft Proa da pista 329

 FREQUÊNCIAS DO AEROPORTO

Tipo AWOS Nome AWOS 3 Frequência 134.85 MHZ
Tipo CLD Nome CLNC DEL Frequência 122.3 MHZ
Tipo CNTR Nome ANCHORAGE Frequência 125.35 MHZ
Tipo CTAF Nome CTAF Frequência 122.3 MHZ
Tipo FSS Nome COLD BAY R Frequência 122.3 MHZ
Tipo UNIC Nome UNICOM Frequência 122.8 MHZ

 AUXÍLIOS DE NAVEGAÇÃO PRÓXIMOS AO AEROPORTO

Tipo NDB-DME Nome Borland Frequência 390 KHZ